Forside
METAR-TAF:

METAR-TAF

Lufthavne :

Maputo, Mozambique

Breddekreds: 25-55S, længdekreds: 032-34E, højde: 39 m

Aktuelle vejr

Denne rapport blev lavet for 1 time og 9 minutter siden, kl. 18:00 UTC
Vind 3 kt fra sydøst
Temperatur 21°C
Fugtighed 83%
Tryk 1024 hPa
Sigt 10 km eller mere
ingen skyer under 1500m og ingen cumulonimbus

METAR: FQMA 221800Z 14003KT CAVOK 21/18 Q1024 NOSIG

Tid: 21:09 (19:09 UTC)

Vejrudsigter

Denne rapport blev lavet for 3 timer og 9 minutter siden, kl. 16:00 UTC
Foreløbig gælder fra 22 på 18 UTC til 23 på 24 UTC
Vind 8 kt fra syd
Sigt 10 km eller mere
Nogle få skyer i en højde af 2500 ft
ændring
fra 23 på 06 UTC til 23 på 08 UTC
Vind 10 kt fra østsydøst
Spredte skyer i en højde af 2000 ft
ændring
fra 23 på 12 UTC til 23 på 14 UTC
Vind 12 kt fra nordøst
ændring
fra 23 på 18 UTC til 23 på 20 UTC
Vind 9 kt fra nord

TAF: FQMA 221600Z 2218/2324 19008KT 9999 FEW025 BECMG 2306/2308 11010KT SCT020 BECMG 2312/2314 05012KT BECMG 2318/2320 35009KT TX28/2313Z TN16/2303Z

Vejrobservationer og prognoser fra mere end 4000 lufthavne (METAR og TAF).

De gule og røde prikker repræsenterer de meteorologiske stationer.

Flyt musen over at se navnet på stationen.

Så klik over at se vejr observationer og prognoser.

At skifte det kort: Klik på de grønne knapper med et sort kors for at zoome ind; på den grønne knap med en bindestreg for at zoome ud; eller på de grønne pile for tilstødende kort.


METAR-TAF: